sensor_id;sensor_type;location;lat;lon;timestamp;temperature;humidity
12438;DHT22;6283;51.330;12.374;2023-12-20T00:00:25;5.60;1.00
12438;DHT22;6283;51.330;12.374;2023-12-20T00:02:51;5.50;1.00
12438;DHT22;6283;51.330;12.374;2023-12-20T00:05:16;5.60;1.00
12438;DHT22;6283;51.330;12.374;2023-12-20T00:07:42;5.40;1.00
12438;DHT22;6283;51.330;12.374;2023-12-20T00:10:09;5.40;1.00
12438;DHT22;6283;51.330;12.374;2023-12-20T00:12:34;5.60;1.00
12438;DHT22;6283;51.330;12.374;2023-12-20T00:15:00;5.20;1.00
12438;DHT22;6283;51.330;12.374;2023-12-20T00:17:26;5.60;1.00
12438;DHT22;6283;51.330;12.374;2023-12-20T00:19:51;5.40;1.00
12438;DHT22;6283;51.330;12.374;2023-12-20T00:22:17;5.50;1.00
12438;DHT22;6283;51.330;12.374;2023-12-20T00:24:42;5.60;1.00
12438;DHT22;6283;51.330;12.374;2023-12-20T00:27:08;5.50;1.00
12438;DHT22;6283;51.330;12.374;2023-12-20T00:29:34;5.60;1.00
12438;DHT22;6283;51.330;12.374;2023-12-20T00:31:59;5.40;1.00
12438;DHT22;6283;51.330;12.374;2023-12-20T00:34:25;5.50;1.00
12438;DHT22;6283;51.330;12.374;2023-12-20T00:36:50;5.50;1.00
12438;DHT22;6283;51.330;12.374;2023-12-20T00:39:16;5.30;1.00
12438;DHT22;6283;51.330;12.374;2023-12-20T00:41:42;5.30;1.00
12438;DHT22;6283;51.330;12.374;2023-12-20T00:44:07;5.50;1.00
12438;DHT22;6283;51.330;12.374;2023-12-20T00:46:33;5.40;1.00
12438;DHT22;6283;51.330;12.374;2023-12-20T00:48:58;5.60;1.00
12438;DHT22;6283;51.330;12.374;2023-12-20T00:51:24;5.40;1.00
12438;DHT22;6283;51.330;12.374;2023-12-20T00:53:50;5.40;1.00
12438;DHT22;6283;51.330;12.374;2023-12-20T00:56:20;5.50;1.00
12438;DHT22;6283;51.330;12.374;2023-12-20T00:58:45;5.30;1.00
12438;DHT22;6283;51.330;12.374;2023-12-20T01:01:11;5.50;1.00
12438;DHT22;6283;51.330;12.374;2023-12-20T01:03:36;5.50;1.00
12438;DHT22;6283;51.330;12.374;2023-12-20T01:06:02;5.20;1.00
12438;DHT22;6283;51.330;12.374;2023-12-20T01:08:29;5.50;1.00
12438;DHT22;6283;51.330;12.374;2023-12-20T01:10:55;5.30;1.00
12438;DHT22;6283;51.330;12.374;2023-12-20T01:13:21;5.40;1.00
12438;DHT22;6283;51.330;12.374;2023-12-20T01:15:46;5.30;1.00
12438;DHT22;6283;51.330;12.374;2023-12-20T01:18:13;5.20;1.00
12438;DHT22;6283;51.330;12.374;2023-12-20T01:20:39;5.50;1.00
12438;DHT22;6283;51.330;12.374;2023-12-20T01:23:05;5.50;1.00
12438;DHT22;6283;51.330;12.374;2023-12-20T01:25:30;5.50;1.00
12438;DHT22;6283;51.330;12.374;2023-12-20T01:27:56;5.10;1.00
12438;DHT22;6283;51.330;12.374;2023-12-20T01:30:21;5.50;1.00
12438;DHT22;6283;51.330;12.374;2023-12-20T01:32:47;5.10;1.00
12438;DHT22;6283;51.330;12.374;2023-12-20T01:35:12;5.50;1.00
12438;DHT22;6283;51.330;12.374;2023-12-20T01:37:38;5.30;1.00
12438;DHT22;6283;51.330;12.374;2023-12-20T01:40:04;5.30;1.00
12438;DHT22;6283;51.330;12.374;2023-12-20T01:42:30;5.30;1.00
12438;DHT22;6283;51.330;12.374;2023-12-20T01:44:56;5.40;1.00
12438;DHT22;6283;51.330;12.374;2023-12-20T01:47:21;5.40;1.00
12438;DHT22;6283;51.330;12.374;2023-12-20T01:49:48;5.30;1.00
12438;DHT22;6283;51.330;12.374;2023-12-20T01:52:14;5.40;1.00
12438;DHT22;6283;51.330;12.374;2023-12-20T01:54:40;5.50;1.00
12438;DHT22;6283;51.330;12.374;2023-12-20T01:57:07;5.50;1.00
12438;DHT22;6283;51.330;12.374;2023-12-20T01:59:34;5.50;1.00
12438;DHT22;6283;51.330;12.374;2023-12-20T02:02:00;5.60;1.00
12438;DHT22;6283;51.330;12.374;2023-12-20T02:04:27;5.40;1.00
12438;DHT22;6283;51.330;12.374;2023-12-20T02:06:53;5.20;1.00
12438;DHT22;6283;51.330;12.374;2023-12-20T02:09:18;5.40;1.00
12438;DHT22;6283;51.330;12.374;2023-12-20T02:11:44;5.50;1.00
12438;DHT22;6283;51.330;12.374;2023-12-20T02:14:10;5.50;1.00
12438;DHT22;6283;51.330;12.374;2023-12-20T02:16:36;5.10;1.00
12438;DHT22;6283;51.330;12.374;2023-12-20T02:19:03;5.20;1.00
12438;DHT22;6283;51.330;12.374;2023-12-20T02:21:32;5.40;1.00
12438;DHT22;6283;51.330;12.374;2023-12-20T02:23:59;5.40;1.00
12438;DHT22;6283;51.330;12.374;2023-12-20T02:26:25;5.40;1.00
12438;DHT22;6283;51.330;12.374;2023-12-20T02:28:50;5.40;1.00
12438;DHT22;6283;51.330;12.374;2023-12-20T02:31:16;5.40;1.00
12438;DHT22;6283;51.330;12.374;2023-12-20T02:33:41;5.40;1.00
12438;DHT22;6283;51.330;12.374;2023-12-20T02:36:07;5.50;1.00
12438;DHT22;6283;51.330;12.374;2023-12-20T02:38:33;5.20;1.00
12438;DHT22;6283;51.330;12.374;2023-12-20T02:40:59;5.50;1.00
12438;DHT22;6283;51.330;12.374;2023-12-20T02:43:25;5.20;1.00
12438;DHT22;6283;51.330;12.374;2023-12-20T02:45:50;5.50;1.00
12438;DHT22;6283;51.330;12.374;2023-12-20T02:48:16;5.50;1.00
12438;DHT22;6283;51.330;12.374;2023-12-20T02:50:41;5.50;1.00
12438;DHT22;6283;51.330;12.374;2023-12-20T02:53:07;5.50;1.00
12438;DHT22;6283;51.330;12.374;2023-12-20T02:55:33;5.60;1.00
12438;DHT22;6283;51.330;12.374;2023-12-20T02:57:58;5.30;1.00
12438;DHT22;6283;51.330;12.374;2023-12-20T03:00:24;5.40;1.00
12438;DHT22;6283;51.330;12.374;2023-12-20T03:02:50;5.30;1.00
12438;DHT22;6283;51.330;12.374;2023-12-20T03:05:15;5.40;1.00
12438;DHT22;6283;51.330;12.374;2023-12-20T03:07:41;5.40;1.00
12438;DHT22;6283;51.330;12.374;2023-12-20T03:10:06;5.60;1.00
12438;DHT22;6283;51.330;12.374;2023-12-20T03:12:33;5.20;1.00
12438;DHT22;6283;51.330;12.374;2023-12-20T03:14:59;5.30;1.00
12438;DHT22;6283;51.330;12.374;2023-12-20T03:17:24;5.50;1.00
12438;DHT22;6283;51.330;12.374;2023-12-20T03:19:50;5.40;1.00
12438;DHT22;6283;51.330;12.374;2023-12-20T03:22:15;5.30;1.00
12438;DHT22;6283;51.330;12.374;2023-12-20T03:24:41;5.50;1.00
12438;DHT22;6283;51.330;12.374;2023-12-20T03:27:07;5.60;1.00
12438;DHT22;6283;51.330;12.374;2023-12-20T03:29:32;5.40;1.00
12438;DHT22;6283;51.330;12.374;2023-12-20T03:31:58;5.60;1.00
12438;DHT22;6283;51.330;12.374;2023-12-20T03:34:23;5.50;1.00
12438;DHT22;6283;51.330;12.374;2023-12-20T03:36:49;5.20;1.00
12438;DHT22;6283;51.330;12.374;2023-12-20T03:39:14;5.30;1.00
12438;DHT22;6283;51.330;12.374;2023-12-20T03:41:40;5.40;1.00
12438;DHT22;6283;51.330;12.374;2023-12-20T03:44:06;5.20;1.00
12438;DHT22;6283;51.330;12.374;2023-12-20T03:46:31;5.30;1.00
12438;DHT22;6283;51.330;12.374;2023-12-20T03:48:57;5.20;1.00
12438;DHT22;6283;51.330;12.374;2023-12-20T03:51:22;5.40;1.00
12438;DHT22;6283;51.330;12.374;2023-12-20T03:53:48;5.40;1.00
12438;DHT22;6283;51.330;12.374;2023-12-20T03:56:13;5.40;1.00
12438;DHT22;6283;51.330;12.374;2023-12-20T03:58:39;5.30;1.00
12438;DHT22;6283;51.330;12.374;2023-12-20T04:01:09;5.30;1.00
12438;DHT22;6283;51.330;12.374;2023-12-20T04:03:36;5.30;1.00
12438;DHT22;6283;51.330;12.374;2023-12-20T04:06:01;5.50;1.00
12438;DHT22;6283;51.330;12.374;2023-12-20T04:08:27;5.50;1.00
12438;DHT22;6283;51.330;12.374;2023-12-20T04:10:52;5.70;1.00
12438;DHT22;6283;51.330;12.374;2023-12-20T04:13:18;5.50;1.00
12438;DHT22;6283;51.330;12.374;2023-12-20T04:15:43;5.40;1.00
12438;DHT22;6283;51.330;12.374;2023-12-20T04:18:09;5.40;1.00
12438;DHT22;6283;51.330;12.374;2023-12-20T04:20:35;5.60;1.00
12438;DHT22;6283;51.330;12.374;2023-12-20T04:23:01;5.60;1.00
12438;DHT22;6283;51.330;12.374;2023-12-20T04:25:26;5.60;1.00
12438;DHT22;6283;51.330;12.374;2023-12-20T04:27:52;5.50;1.00
12438;DHT22;6283;51.330;12.374;2023-12-20T04:30:17;5.60;1.00
12438;DHT22;6283;51.330;12.374;2023-12-20T04:32:43;5.60;1.00
12438;DHT22;6283;51.330;12.374;2023-12-20T04:35:08;5.50;1.00
12438;DHT22;6283;51.330;12.374;2023-12-20T04:37:34;5.60;1.00
12438;DHT22;6283;51.330;12.374;2023-12-20T04:40:00;5.70;1.00
12438;DHT22;6283;51.330;12.374;2023-12-20T04:42:25;5.70;1.00
12438;DHT22;6283;51.330;12.374;2023-12-20T04:44:51;5.80;1.00
12438;DHT22;6283;51.330;12.374;2023-12-20T04:47:16;5.50;1.00
12438;DHT22;6283;51.330;12.374;2023-12-20T04:49:42;5.40;1.00
12438;DHT22;6283;51.330;12.374;2023-12-20T04:52:07;5.70;1.00
12438;DHT22;6283;51.330;12.374;2023-12-20T04:54:33;5.30;1.00
12438;DHT22;6283;51.330;12.374;2023-12-20T04:56:59;5.70;1.00
12438;DHT22;6283;51.330;12.374;2023-12-20T04:59:24;5.80;1.00
12438;DHT22;6283;51.330;12.374;2023-12-20T05:01:50;5.50;1.00
12438;DHT22;6283;51.330;12.374;2023-12-20T05:04:15;5.50;1.00
12438;DHT22;6283;51.330;12.374;2023-12-20T05:06:41;5.60;1.00
12438;DHT22;6283;51.330;12.374;2023-12-20T05:09:06;5.50;1.00
12438;DHT22;6283;51.330;12.374;2023-12-20T05:11:32;5.60;1.00
12438;DHT22;6283;51.330;12.374;2023-12-20T05:13:57;5.90;1.00
12438;DHT22;6283;51.330;12.374;2023-12-20T05:16:23;5.60;1.00
12438;DHT22;6283;51.330;12.374;2023-12-20T05:18:49;5.80;1.00
12438;DHT22;6283;51.330;12.374;2023-12-20T05:21:18;5.80;1.00
12438;DHT22;6283;51.330;12.374;2023-12-20T05:23:44;5.60;1.00
12438;DHT22;6283;51.330;12.374;2023-12-20T05:26:09;5.80;1.00
12438;DHT22;6283;51.330;12.374;2023-12-20T05:28:35;5.80;1.00
12438;DHT22;6283;51.330;12.374;2023-12-20T05:31:00;5.80;1.00
12438;DHT22;6283;51.330;12.374;2023-12-20T05:33:26;5.60;1.00
12438;DHT22;6283;51.330;12.374;2023-12-20T05:35:52;5.80;1.00
12438;DHT22;6283;51.330;12.374;2023-12-20T05:38:17;5.90;1.00
12438;DHT22;6283;51.330;12.374;2023-12-20T05:40:43;5.80;1.00
12438;DHT22;6283;51.330;12.374;2023-12-20T05:43:08;5.70;1.00
12438;DHT22;6283;51.330;12.374;2023-12-20T05:45:34;6.00;1.00
12438;DHT22;6283;51.330;12.374;2023-12-20T05:48:00;6.00;1.00
12438;DHT22;6283;51.330;12.374;2023-12-20T05:50:25;5.80;1.00
12438;DHT22;6283;51.330;12.374;2023-12-20T05:52:51;6.00;1.00
12438;DHT22;6283;51.330;12.374;2023-12-20T05:55:16;6.00;1.00
12438;DHT22;6283;51.330;12.374;2023-12-20T05:57:42;5.90;1.00
12438;DHT22;6283;51.330;12.374;2023-12-20T06:00:09;5.70;1.00
12438;DHT22;6283;51.330;12.374;2023-12-20T06:02:35;6.10;1.00
12438;DHT22;6283;51.330;12.374;2023-12-20T06:05:03;5.90;1.00
12438;DHT22;6283;51.330;12.374;2023-12-20T06:07:29;5.90;1.00
12438;DHT22;6283;51.330;12.374;2023-12-20T06:09:55;5.90;1.00
12438;DHT22;6283;51.330;12.374;2023-12-20T06:12:20;5.80;1.00
12438;DHT22;6283;51.330;12.374;2023-12-20T06:14:46;5.90;1.00
12438;DHT22;6283;51.330;12.374;2023-12-20T06:17:11;5.80;1.00
12438;DHT22;6283;51.330;12.374;2023-12-20T06:19:37;5.70;1.00
12438;DHT22;6283;51.330;12.374;2023-12-20T06:22:03;5.80;1.00
12438;DHT22;6283;51.330;12.374;2023-12-20T06:24:28;5.90;1.00
12438;DHT22;6283;51.330;12.374;2023-12-20T06:26:55;5.90;1.00
12438;DHT22;6283;51.330;12.374;2023-12-20T06:29:20;5.90;1.00
12438;DHT22;6283;51.330;12.374;2023-12-20T06:31:46;5.70;1.00
12438;DHT22;6283;51.330;12.374;2023-12-20T06:34:12;5.80;1.00
12438;DHT22;6283;51.330;12.374;2023-12-20T06:36:37;5.90;1.00
12438;DHT22;6283;51.330;12.374;2023-12-20T06:39:03;5.60;1.00
12438;DHT22;6283;51.330;12.374;2023-12-20T06:41:30;5.70;1.00
12438;DHT22;6283;51.330;12.374;2023-12-20T06:43:55;5.40;1.00
12438;DHT22;6283;51.330;12.374;2023-12-20T06:46:21;5.60;1.00
12438;DHT22;6283;51.330;12.374;2023-12-20T06:48:46;5.50;1.00
12438;DHT22;6283;51.330;12.374;2023-12-20T06:51:16;5.10;1.00
12438;DHT22;6283;51.330;12.374;2023-12-20T06:53:42;5.40;1.00
12438;DHT22;6283;51.330;12.374;2023-12-20T06:56:08;5.30;1.00
12438;DHT22;6283;51.330;12.374;2023-12-20T06:58:34;5.20;1.00
12438;DHT22;6283;51.330;12.374;2023-12-20T07:01:00;5.30;1.00
12438;DHT22;6283;51.330;12.374;2023-12-20T07:03:26;5.30;1.00
12438;DHT22;6283;51.330;12.374;2023-12-20T07:05:51;5.20;1.00
12438;DHT22;6283;51.330;12.374;2023-12-20T07:08:17;5.40;1.00
12438;DHT22;6283;51.330;12.374;2023-12-20T07:10:43;5.20;1.00
12438;DHT22;6283;51.330;12.374;2023-12-20T07:13:08;5.20;1.00
12438;DHT22;6283;51.330;12.374;2023-12-20T07:15:34;5.40;1.00
12438;DHT22;6283;51.330;12.374;2023-12-20T07:18:01;5.20;1.00
12438;DHT22;6283;51.330;12.374;2023-12-20T07:20:26;5.10;1.40
12438;DHT22;6283;51.330;12.374;2023-12-20T07:22:52;5.40;1.40
12438;DHT22;6283;51.330;12.374;2023-12-20T07:25:17;5.20;99.90
12438;DHT22;6283;51.330;12.374;2023-12-20T07:27:43;5.20;99.90
12438;DHT22;6283;51.330;12.374;2023-12-20T07:30:09;5.20;99.90
12438;DHT22;6283;51.330;12.374;2023-12-20T07:32:35;5.30;99.90
12438;DHT22;6283;51.330;12.374;2023-12-20T07:35:01;5.20;99.90
12438;DHT22;6283;51.330;12.374;2023-12-20T07:37:27;5.20;99.90
12438;DHT22;6283;51.330;12.374;2023-12-20T07:39:53;5.20;99.90
12438;DHT22;6283;51.330;12.374;2023-12-20T07:42:18;5.40;99.90
12438;DHT22;6283;51.330;12.374;2023-12-20T07:44:44;5.30;99.90
12438;DHT22;6283;51.330;12.374;2023-12-20T07:47:10;5.30;99.90
12438;DHT22;6283;51.330;12.374;2023-12-20T07:49:37;5.30;99.90
12438;DHT22;6283;51.330;12.374;2023-12-20T07:52:03;5.10;99.90
12438;DHT22;6283;51.330;12.374;2023-12-20T07:54:28;5.20;99.90
12438;DHT22;6283;51.330;12.374;2023-12-20T07:56:55;5.40;99.90
12438;DHT22;6283;51.330;12.374;2023-12-20T07:59:20;5.40;99.90
12438;DHT22;6283;51.330;12.374;2023-12-20T08:01:46;5.40;99.90
12438;DHT22;6283;51.330;12.374;2023-12-20T08:04:12;5.40;99.90
12438;DHT22;6283;51.330;12.374;2023-12-20T08:06:37;5.30;99.90
12438;DHT22;6283;51.330;12.374;2023-12-20T08:09:03;5.40;99.90
12438;DHT22;6283;51.330;12.374;2023-12-20T08:11:29;5.40;99.90
12438;DHT22;6283;51.330;12.374;2023-12-20T08:13:55;5.50;99.90
12438;DHT22;6283;51.330;12.374;2023-12-20T08:16:20;5.70;99.90
12438;DHT22;6283;51.330;12.374;2023-12-20T08:18:47;5.60;99.90
12438;DHT22;6283;51.330;12.374;2023-12-20T08:21:13;5.60;99.90
12438;DHT22;6283;51.330;12.374;2023-12-20T08:23:38;5.70;99.90
12438;DHT22;6283;51.330;12.374;2023-12-20T08:26:05;5.60;99.90
12438;DHT22;6283;51.330;12.374;2023-12-20T08:28:31;5.50;99.90
12438;DHT22;6283;51.330;12.374;2023-12-20T08:30:57;5.50;99.90
12438;DHT22;6283;51.330;12.374;2023-12-20T08:33:23;5.80;99.90
12438;DHT22;6283;51.330;12.374;2023-12-20T08:35:48;5.70;99.90
12438;DHT22;6283;51.330;12.374;2023-12-20T08:38:14;5.60;99.90
12438;DHT22;6283;51.330;12.374;2023-12-20T08:40:40;5.70;99.90
12438;DHT22;6283;51.330;12.374;2023-12-20T08:43:05;5.60;99.90
12438;DHT22;6283;51.330;12.374;2023-12-20T08:45:31;5.70;99.90
12438;DHT22;6283;51.330;12.374;2023-12-20T08:47:56;5.60;99.90
12438;DHT22;6283;51.330;12.374;2023-12-20T08:50:22;5.80;99.90
12438;DHT22;6283;51.330;12.374;2023-12-20T08:52:48;5.90;99.90
12438;DHT22;6283;51.330;12.374;2023-12-20T08:55:13;5.90;99.90
12438;DHT22;6283;51.330;12.374;2023-12-20T08:57:41;6.00;99.90
12438;DHT22;6283;51.330;12.374;2023-12-20T09:00:07;5.80;99.90
12438;DHT22;6283;51.330;12.374;2023-12-20T09:02:33;6.00;99.90
12438;DHT22;6283;51.330;12.374;2023-12-20T09:05:01;6.00;99.90
12438;DHT22;6283;51.330;12.374;2023-12-20T09:07:28;5.90;99.90
12438;DHT22;6283;51.330;12.374;2023-12-20T09:09:57;5.80;99.90
12438;DHT22;6283;51.330;12.374;2023-12-20T09:12:23;5.90;99.90
12438;DHT22;6283;51.330;12.374;2023-12-20T09:14:50;5.80;99.90
12438;DHT22;6283;51.330;12.374;2023-12-20T09:17:17;6.00;99.90
12438;DHT22;6283;51.330;12.374;2023-12-20T09:19:43;6.10;99.90
12438;DHT22;6283;51.330;12.374;2023-12-20T09:22:12;5.80;99.90
12438;DHT22;6283;51.330;12.374;2023-12-20T09:24:38;6.00;99.90
12438;DHT22;6283;51.330;12.374;2023-12-20T09:27:07;6.00;99.90
12438;DHT22;6283;51.330;12.374;2023-12-20T09:29:33;6.00;99.90
12438;DHT22;6283;51.330;12.374;2023-12-20T09:31:59;6.00;99.90
12438;DHT22;6283;51.330;12.374;2023-12-20T09:34:24;6.10;99.90
12438;DHT22;6283;51.330;12.374;2023-12-20T09:36:51;6.20;51.50
12438;DHT22;6283;51.330;12.374;2023-12-20T09:39:18;6.00;1.00
12438;DHT22;6283;51.330;12.374;2023-12-20T09:42:02;6.00;1.00
12438;DHT22;6283;51.330;12.374;2023-12-20T09:44:28;6.10;1.00
12438;DHT22;6283;51.330;12.374;2023-12-20T09:46:55;6.10;1.00
12438;DHT22;6283;51.330;12.374;2023-12-20T09:49:21;6.10;1.00
12438;DHT22;6283;51.330;12.374;2023-12-20T09:51:47;6.30;1.00
12438;DHT22;6283;51.330;12.374;2023-12-20T09:54:17;6.40;99.90
12438;DHT22;6283;51.330;12.374;2023-12-20T09:56:44;6.50;99.90
12438;DHT22;6283;51.330;12.374;2023-12-20T09:59:10;6.40;1.00
12438;DHT22;6283;51.330;12.374;2023-12-20T10:01:39;6.50;99.90
12438;DHT22;6283;51.330;12.374;2023-12-20T10:04:06;6.70;1.00
12438;DHT22;6283;51.330;12.374;2023-12-20T10:06:35;6.80;1.00
12438;DHT22;6283;51.330;12.374;2023-12-20T10:09:01;6.70;1.00
12438;DHT22;6283;51.330;12.374;2023-12-20T10:11:27;6.70;99.90
12438;DHT22;6283;51.330;12.374;2023-12-20T10:13:59;6.70;99.90
12438;DHT22;6283;51.330;12.374;2023-12-20T10:16:28;6.80;99.90
12438;DHT22;6283;51.330;12.374;2023-12-20T10:18:54;7.30;99.90
12438;DHT22;6283;51.330;12.374;2023-12-20T10:21:21;7.20;99.90
12438;DHT22;6283;51.330;12.374;2023-12-20T10:23:48;7.40;99.90
12438;DHT22;6283;51.330;12.374;2023-12-20T10:26:41;7.40;37.20
12438;DHT22;6283;51.330;12.374;2023-12-20T10:29:07;7.40;11.70
12438;DHT22;6283;51.330;12.374;2023-12-20T10:31:34;7.50;1.00
12438;DHT22;6283;51.330;12.374;2023-12-20T10:34:01;7.70;1.00
12438;DHT22;6283;51.330;12.374;2023-12-20T10:36:29;7.50;1.00
12438;DHT22;6283;51.330;12.374;2023-12-20T10:38:56;7.60;1.00
12438;DHT22;6283;51.330;12.374;2023-12-20T10:41:26;7.40;1.00
12438;DHT22;6283;51.330;12.374;2023-12-20T10:44:00;7.60;1.00
12438;DHT22;6283;51.330;12.374;2023-12-20T10:46:27;7.60;1.00
12438;DHT22;6283;51.330;12.374;2023-12-20T10:48:54;7.60;1.00
12438;DHT22;6283;51.330;12.374;2023-12-20T10:51:21;7.50;1.00
12438;DHT22;6283;51.330;12.374;2023-12-20T10:53:48;7.70;1.00
12438;DHT22;6283;51.330;12.374;2023-12-20T10:56:16;7.60;1.00
12438;DHT22;6283;51.330;12.374;2023-12-20T10:58:43;7.50;1.00
12438;DHT22;6283;51.330;12.374;2023-12-20T11:01:16;7.50;1.00
12438;DHT22;6283;51.330;12.374;2023-12-20T11:06:47;7.50;1.00
12438;DHT22;6283;51.330;12.374;2023-12-20T11:09:24;7.80;1.00
12438;DHT22;6283;51.330;12.374;2023-12-20T11:14:48;7.60;1.00
12438;DHT22;6283;51.330;12.374;2023-12-20T11:17:15;7.70;1.00
12438;DHT22;6283;51.330;12.374;2023-12-20T11:22:29;7.60;1.00
12438;DHT22;6283;51.330;12.374;2023-12-20T11:25:05;7.80;1.00
12438;DHT22;6283;51.330;12.374;2023-12-20T11:27:35;7.90;1.00
12438;DHT22;6283;51.330;12.374;2023-12-20T11:30:04;7.90;1.00
12438;DHT22;6283;51.330;12.374;2023-12-20T11:32:36;7.80;1.00
12438;DHT22;6283;51.330;12.374;2023-12-20T11:37:38;7.90;1.00
12438;DHT22;6283;51.330;12.374;2023-12-20T11:40:06;7.70;1.00
12438;DHT22;6283;51.330;12.374;2023-12-20T11:42:50;7.80;1.00
12438;DHT22;6283;51.330;12.374;2023-12-20T11:45:18;7.50;1.00
12438;DHT22;6283;51.330;12.374;2023-12-20T11:47:49;7.60;1.00
12438;DHT22;6283;51.330;12.374;2023-12-20T11:50:18;7.60;1.00
12438;DHT22;6283;51.330;12.374;2023-12-20T11:52:44;7.40;1.00
12438;DHT22;6283;51.330;12.374;2023-12-20T11:55:10;7.40;1.00
12438;DHT22;6283;51.330;12.374;2023-12-20T11:57:36;7.60;1.00
12438;DHT22;6283;51.330;12.374;2023-12-20T12:00:03;7.70;1.00
12438;DHT22;6283;51.330;12.374;2023-12-20T12:02:30;7.60;1.00
12438;DHT22;6283;51.330;12.374;2023-12-20T12:04:56;7.60;1.00
12438;DHT22;6283;51.330;12.374;2023-12-20T12:07:22;7.60;1.00
12438;DHT22;6283;51.330;12.374;2023-12-20T12:09:48;7.60;1.00
12438;DHT22;6283;51.330;12.374;2023-12-20T12:12:13;7.70;1.00
12438;DHT22;6283;51.330;12.374;2023-12-20T12:14:39;7.60;1.00
12438;DHT22;6283;51.330;12.374;2023-12-20T12:17:14;7.50;1.00
12438;DHT22;6283;51.330;12.374;2023-12-20T12:19:43;7.70;1.00
12438;DHT22;6283;51.330;12.374;2023-12-20T12:22:10;7.60;1.00
12438;DHT22;6283;51.330;12.374;2023-12-20T12:24:40;7.70;1.00
12438;DHT22;6283;51.330;12.374;2023-12-20T12:27:06;7.80;1.00
12438;DHT22;6283;51.330;12.374;2023-12-20T12:29:33;7.50;1.00
12438;DHT22;6283;51.330;12.374;2023-12-20T12:31:59;7.60;1.00
12438;DHT22;6283;51.330;12.374;2023-12-20T12:34:27;7.60;1.00
12438;DHT22;6283;51.330;12.374;2023-12-20T12:36:53;7.60;1.00
12438;DHT22;6283;51.330;12.374;2023-12-20T12:39:20;7.70;1.00
12438;DHT22;6283;51.330;12.374;2023-12-20T12:41:45;7.90;1.00
12438;DHT22;6283;51.330;12.374;2023-12-20T12:44:11;7.80;1.00
12438;DHT22;6283;51.330;12.374;2023-12-20T12:46:37;7.80;1.00
12438;DHT22;6283;51.330;12.374;2023-12-20T12:49:02;7.90;1.00
12438;DHT22;6283;51.330;12.374;2023-12-20T12:51:29;7.80;1.00
12438;DHT22;6283;51.330;12.374;2023-12-20T12:53:54;7.80;1.00
12438;DHT22;6283;51.330;12.374;2023-12-20T12:56:20;7.80;1.00
12438;DHT22;6283;51.330;12.374;2023-12-20T12:58:47;7.80;1.00
12438;DHT22;6283;51.330;12.374;2023-12-20T13:01:13;7.90;1.00
12438;DHT22;6283;51.330;12.374;2023-12-20T13:03:39;8.20;1.00
12438;DHT22;6283;51.330;12.374;2023-12-20T13:06:05;8.60;1.00
12438;DHT22;6283;51.330;12.374;2023-12-20T13:08:31;8.50;1.00
12438;DHT22;6283;51.330;12.374;2023-12-20T13:10:57;8.60;1.00
12438;DHT22;6283;51.330;12.374;2023-12-20T13:13:26;8.70;1.00
12438;DHT22;6283;51.330;12.374;2023-12-20T13:15:52;8.90;1.00
12438;DHT22;6283;51.330;12.374;2023-12-20T13:18:20;8.50;1.00
12438;DHT22;6283;51.330;12.374;2023-12-20T13:20:47;8.80;1.00
12438;DHT22;6283;51.330;12.374;2023-12-20T13:23:12;8.70;1.00
12438;DHT22;6283;51.330;12.374;2023-12-20T13:25:38;9.10;1.00
12438;DHT22;6283;51.330;12.374;2023-12-20T13:28:04;9.20;1.00
12438;DHT22;6283;51.330;12.374;2023-12-20T13:30:30;9.10;1.00
12438;DHT22;6283;51.330;12.374;2023-12-20T13:32:56;9.10;1.00
12438;DHT22;6283;51.330;12.374;2023-12-20T13:35:21;8.90;1.00
12438;DHT22;6283;51.330;12.374;2023-12-20T13:37:47;8.70;1.00
12438;DHT22;6283;51.330;12.374;2023-12-20T13:40:13;8.80;1.00
12438;DHT22;6283;51.330;12.374;2023-12-20T13:42:39;8.90;1.00
12438;DHT22;6283;51.330;12.374;2023-12-20T13:45:05;9.00;1.00
12438;DHT22;6283;51.330;12.374;2023-12-20T13:47:32;8.80;1.00
12438;DHT22;6283;51.330;12.374;2023-12-20T13:49:57;8.60;1.00
12438;DHT22;6283;51.330;12.374;2023-12-20T13:52:23;8.80;1.00
12438;DHT22;6283;51.330;12.374;2023-12-20T13:54:49;8.90;1.00
12438;DHT22;6283;51.330;12.374;2023-12-20T13:57:14;8.90;1.00
12438;DHT22;6283;51.330;12.374;2023-12-20T13:59:40;8.60;1.00
12438;DHT22;6283;51.330;12.374;2023-12-20T14:02:06;8.90;1.00
12438;DHT22;6283;51.330;12.374;2023-12-20T14:04:31;8.90;1.00
12438;DHT22;6283;51.330;12.374;2023-12-20T14:06:57;8.90;1.00
12438;DHT22;6283;51.330;12.374;2023-12-20T14:09:23;9.00;1.00
12438;DHT22;6283;51.330;12.374;2023-12-20T14:11:48;9.00;1.00
12438;DHT22;6283;51.330;12.374;2023-12-20T14:14:14;8.60;1.00
12438;DHT22;6283;51.330;12.374;2023-12-20T14:16:40;8.60;1.00
12438;DHT22;6283;51.330;12.374;2023-12-20T14:19:05;8.40;1.00
12438;DHT22;6283;51.330;12.374;2023-12-20T14:21:34;8.30;1.00
12438;DHT22;6283;51.330;12.374;2023-12-20T14:24:00;7.90;1.00
12438;DHT22;6283;51.330;12.374;2023-12-20T14:26:26;8.10;1.00
12438;DHT22;6283;51.330;12.374;2023-12-20T14:28:53;7.70;1.00
12438;DHT22;6283;51.330;12.374;2023-12-20T14:31:19;7.70;1.00
12438;DHT22;6283;51.330;12.374;2023-12-20T14:33:45;7.70;1.00
12438;DHT22;6283;51.330;12.374;2023-12-20T14:36:11;7.70;1.00
12438;DHT22;6283;51.330;12.374;2023-12-20T14:38:37;8.00;1.00
12438;DHT22;6283;51.330;12.374;2023-12-20T14:41:03;7.70;1.00
12438;DHT22;6283;51.330;12.374;2023-12-20T14:43:31;7.70;1.00
12438;DHT22;6283;51.330;12.374;2023-12-20T14:45:56;7.60;1.00
12438;DHT22;6283;51.330;12.374;2023-12-20T14:48:22;7.60;1.00
12438;DHT22;6283;51.330;12.374;2023-12-20T14:50:48;7.60;1.00
12438;DHT22;6283;51.330;12.374;2023-12-20T14:53:15;7.70;1.00
12438;DHT22;6283;51.330;12.374;2023-12-20T14:55:42;7.70;1.00
12438;DHT22;6283;51.330;12.374;2023-12-20T14:58:08;7.50;1.00
12438;DHT22;6283;51.330;12.374;2023-12-20T15:00:33;7.60;1.00
12438;DHT22;6283;51.330;12.374;2023-12-20T15:02:59;7.50;1.00
12438;DHT22;6283;51.330;12.374;2023-12-20T15:05:25;7.70;1.00
12438;DHT22;6283;51.330;12.374;2023-12-20T15:07:51;7.50;1.00
12438;DHT22;6283;51.330;12.374;2023-12-20T15:10:18;7.70;1.00
12438;DHT22;6283;51.330;12.374;2023-12-20T15:12:44;7.50;1.00
12438;DHT22;6283;51.330;12.374;2023-12-20T15:15:10;7.60;1.00
12438;DHT22;6283;51.330;12.374;2023-12-20T15:17:36;7.70;1.00
12438;DHT22;6283;51.330;12.374;2023-12-20T15:20:03;7.60;1.00
12438;DHT22;6283;51.330;12.374;2023-12-20T15:22:30;7.60;1.00
12438;DHT22;6283;51.330;12.374;2023-12-20T15:24:55;7.60;1.00
12438;DHT22;6283;51.330;12.374;2023-12-20T15:27:21;7.60;1.00
12438;DHT22;6283;51.330;12.374;2023-12-20T15:29:47;7.50;1.00
12438;DHT22;6283;51.330;12.374;2023-12-20T15:32:15;7.60;1.00
12438;DHT22;6283;51.330;12.374;2023-12-20T15:34:40;7.50;1.00
12438;DHT22;6283;51.330;12.374;2023-12-20T15:37:06;7.60;1.00
12438;DHT22;6283;51.330;12.374;2023-12-20T15:39:31;7.60;1.00
12438;DHT22;6283;51.330;12.374;2023-12-20T15:41:57;7.60;1.00
12438;DHT22;6283;51.330;12.374;2023-12-20T15:44:23;7.50;1.00
12438;DHT22;6283;51.330;12.374;2023-12-20T15:46:48;7.50;1.00
12438;DHT22;6283;51.330;12.374;2023-12-20T15:49:14;7.70;1.00
12438;DHT22;6283;51.330;12.374;2023-12-20T15:51:42;7.30;1.00
12438;DHT22;6283;51.330;12.374;2023-12-20T15:54:08;7.40;1.00
12438;DHT22;6283;51.330;12.374;2023-12-20T15:56:34;7.60;1.00
12438;DHT22;6283;51.330;12.374;2023-12-20T15:58:59;7.30;1.00
12438;DHT22;6283;51.330;12.374;2023-12-20T16:01:25;7.50;1.00
12438;DHT22;6283;51.330;12.374;2023-12-20T16:03:51;7.50;1.00